createdAt,value
2022-08-07T00:00:28.011Z,100.00
2022-08-07T00:02:57.005Z,100.00
2022-08-07T00:05:25.748Z,100.00
2022-08-07T00:08:00.060Z,100.00
2022-08-07T00:10:30.527Z,100.00
2022-08-07T00:13:02.079Z,100.00
2022-08-07T00:15:36.179Z,100.00
2022-08-07T00:18:19.282Z,100.00
2022-08-07T00:20:49.454Z,100.00
2022-08-07T00:23:21.296Z,100.00
2022-08-07T00:25:59.105Z,100.00
2022-08-07T00:28:33.723Z,100.00
2022-08-07T00:31:06.238Z,100.00
2022-08-07T00:33:41.999Z,100.00
2022-08-07T00:36:10.189Z,100.00
2022-08-07T00:38:40.251Z,100.00
2022-08-07T00:41:14.427Z,100.00
2022-08-07T00:44:01.275Z,100.00
2022-08-07T00:46:33.175Z,100.00
2022-08-07T00:49:02.943Z,100.00
2022-08-07T00:51:58.347Z,100.00
2022-08-07T00:54:22.431Z,100.00
2022-08-07T00:56:51.856Z,100.00
2022-08-07T00:59:35.253Z,100.00
2022-08-07T01:02:08.779Z,100.00
2022-08-07T01:04:43.118Z,100.00
2022-08-07T01:07:12.746Z,100.00
2022-08-07T01:10:04.043Z,100.00
2022-08-07T01:12:31.309Z,100.00
2022-08-07T01:15:01.597Z,100.00
2022-08-07T01:17:33.124Z,100.00
2022-08-07T01:20:06.561Z,100.00
2022-08-07T01:22:46.881Z,100.00
2022-08-07T01:25:40.306Z,100.00
2022-08-07T01:28:15.662Z,100.00
2022-08-07T01:30:45.650Z,100.00
2022-08-07T01:33:15.113Z,100.00
2022-08-07T01:35:53.310Z,100.00
2022-08-07T01:38:25.873Z,100.00
2022-08-07T01:40:56.184Z,100.00
2022-08-07T01:43:25.968Z,100.00
2022-08-07T01:45:55.497Z,100.00
2022-08-07T01:48:30.364Z,100.00
2022-08-07T01:51:24.078Z,100.00
2022-08-07T01:54:09.666Z,100.00
2022-08-07T01:56:49.134Z,100.00
2022-08-07T01:59:30.876Z,100.00
2022-08-07T02:02:06.019Z,100.00
2022-08-07T02:04:56.158Z,100.00
2022-08-07T02:07:44.991Z,100.00
2022-08-07T02:10:18.432Z,100.00
2022-08-07T02:12:50.298Z,100.00
2022-08-07T02:15:23.148Z,100.00
2022-08-07T02:17:54.889Z,100.00
2022-08-07T02:20:25.588Z,100.00
2022-08-07T02:22:57.526Z,100.00
2022-08-07T02:26:10.519Z,100.00
2022-08-07T02:28:24.399Z,100.00
2022-08-07T02:30:54.794Z,100.00
2022-08-07T02:33:42.166Z,100.00
2022-08-07T02:36:28.562Z,100.00
2022-08-07T02:39:02.613Z,100.00
2022-08-07T02:41:54.406Z,100.00
2022-08-07T02:44:27.670Z,100.00
2022-08-07T02:47:05.006Z,100.00
2022-08-07T02:49:57.826Z,100.00
2022-08-07T02:52:31.003Z,100.00
2022-08-07T02:55:04.054Z,100.00
2022-08-07T02:57:37.894Z,100.00
2022-08-07T03:00:11.143Z,100.00
2022-08-07T03:02:54.319Z,100.00
2022-08-07T03:05:25.350Z,100.00
2022-08-07T03:08:07.960Z,100.00
2022-08-07T03:10:40.655Z,100.00
2022-08-07T03:13:19.517Z,100.00
2022-08-07T03:15:56.385Z,100.00
2022-08-07T03:18:34.818Z,100.00
2022-08-07T03:21:08.532Z,100.00
2022-08-07T03:24:17.805Z,100.00
2022-08-07T03:26:31.841Z,100.00
2022-08-07T03:29:04.234Z,100.00
2022-08-07T03:31:42.804Z,100.00
2022-08-07T03:34:18.848Z,100.00
2022-08-07T03:36:53.615Z,100.00
2022-08-07T03:39:45.778Z,100.00
2022-08-07T03:42:13.189Z,100.00
2022-08-07T03:44:43.106Z,100.00
2022-08-07T03:47:22.676Z,100.00
2022-08-07T03:49:52.296Z,100.00
2022-08-07T03:52:26.527Z,100.00
2022-08-07T03:54:58.953Z,100.00
2022-08-07T03:58:33.134Z,100.00
2022-08-07T04:00:29.158Z,100.00
2022-08-07T04:02:59.912Z,100.00
2022-08-07T04:05:40.591Z,100.00
2022-08-07T04:08:12.315Z,100.00
2022-08-07T04:10:42.438Z,100.00
2022-08-07T04:13:15.081Z,100.00
2022-08-07T04:15:45.876Z,100.00
2022-08-07T04:18:57.301Z,100.00
2022-08-07T04:21:07.199Z,100.00
2022-08-07T04:23:43.383Z,100.00
2022-08-07T04:26:28.635Z,100.00
2022-08-07T04:28:57.083Z,100.00
2022-08-07T04:31:39.214Z,100.00
2022-08-07T04:34:17.344Z,100.00
2022-08-07T04:36:52.602Z,100.00
2022-08-07T04:39:25.413Z,100.00
2022-08-07T04:41:54.166Z,100.00
2022-08-07T04:44:22.472Z,100.00
2022-08-07T04:47:07.928Z,100.00
2022-08-07T04:49:47.621Z,100.00
2022-08-07T04:52:35.130Z,100.00
2022-08-07T04:55:14.870Z,100.00
2022-08-07T04:58:38.840Z,100.00
2022-08-07T05:01:13.386Z,100.00
2022-08-07T05:04:07.132Z,100.00
2022-08-07T05:06:42.919Z,100.00
2022-08-07T05:09:43.213Z,100.00
2022-08-07T05:12:15.542Z,100.00
2022-08-07T05:15:04.710Z,100.00
2022-08-07T05:17:50.794Z,100.00
2022-08-07T05:20:27.343Z,100.00
2022-08-07T05:23:00.774Z,100.00
2022-08-07T05:26:10.457Z,100.00
2022-08-07T05:28:26.611Z,100.00
2022-08-07T05:30:56.944Z,100.00
2022-08-07T05:33:26.063Z,100.00
2022-08-07T05:35:57.298Z,100.00
2022-08-07T05:38:58.036Z,100.00
2022-08-07T05:41:16.618Z,100.00
2022-08-07T05:44:07.758Z,100.00
2022-08-07T05:46:38.281Z,100.00
2022-08-07T05:49:11.686Z,100.00
2022-08-07T05:51:43.274Z,100.00
2022-08-07T05:54:31.163Z,100.00
2022-08-07T05:57:04.966Z,100.00
2022-08-07T05:59:46.619Z,100.00
2022-08-07T06:02:29.045Z,100.00
2022-08-07T06:05:03.671Z,100.00
2022-08-07T06:08:13.236Z,100.00
2022-08-07T06:10:23.841Z,100.00
2022-08-07T06:12:52.152Z,100.00
2022-08-07T06:15:20.947Z,100.00
2022-08-07T06:17:53.870Z,100.00
2022-08-07T06:20:32.192Z,100.00
2022-08-07T06:23:46.507Z,100.00
2022-08-07T06:26:03.290Z,100.00
2022-08-07T06:28:31.938Z,100.00
2022-08-07T06:31:00.098Z,100.00
2022-08-07T06:33:29.788Z,100.00
2022-08-07T06:36:12.777Z,100.00
2022-08-07T06:38:59.433Z,100.00
2022-08-07T06:42:01.080Z,100.00
2022-08-07T06:44:33.965Z,100.00
2022-08-07T06:47:10.331Z,100.00
2022-08-07T06:49:51.826Z,100.00
2022-08-07T06:52:35.993Z,100.00
2022-08-07T06:55:31.678Z,100.00
2022-08-07T06:58:01.741Z,100.00
2022-08-07T07:00:35.325Z,100.00
2022-08-07T07:03:10.813Z,100.00
2022-08-07T07:06:03.343Z,100.00
2022-08-07T07:08:33.529Z,100.00
2022-08-07T07:11:14.069Z,100.00
2022-08-07T07:13:58.023Z,100.00
2022-08-07T07:16:45.033Z,100.00
2022-08-07T07:19:56.309Z,100.00
2022-08-07T07:22:35.913Z,100.00
2022-08-07T07:26:31.639Z,100.00
2022-08-07T07:28:02.587Z,100.00
2022-08-07T07:30:38.533Z,100.00
2022-08-07T07:33:12.087Z,100.00
2022-08-07T07:35:51.860Z,100.00
2022-08-07T07:38:35.821Z,100.00
2022-08-07T07:41:08.893Z,100.00
2022-08-07T07:44:13.714Z,100.00
2022-08-07T07:46:39.872Z,100.00
2022-08-07T07:50:34.519Z,100.00
2022-08-07T07:52:13.830Z,100.00
2022-08-07T07:54:51.089Z,100.00
2022-08-07T07:57:52.330Z,100.00
2022-08-07T08:00:21.156Z,100.00
2022-08-07T08:03:07.850Z,100.00
2022-08-07T08:05:54.428Z,100.00
2022-08-07T08:08:35.496Z,100.00
2022-08-07T08:11:16.457Z,100.00
2022-08-07T08:13:54.878Z,100.00
2022-08-07T08:16:29.586Z,100.00
2022-08-07T08:19:17.476Z,100.00
2022-08-07T08:22:07.981Z,100.00
2022-08-07T08:25:04.866Z,100.00
2022-08-07T08:27:56.558Z,100.00
2022-08-07T08:30:34.483Z,100.00
2022-08-07T08:33:10.604Z,100.00
2022-08-07T08:35:50.714Z,100.00
2022-08-07T08:38:25.913Z,100.00
2022-08-07T08:41:05.056Z,100.00
2022-08-07T08:43:42.943Z,100.00
2022-08-07T08:46:27.736Z,100.00
2022-08-07T08:49:05.130Z,100.00
2022-08-07T08:52:12.518Z,100.00
2022-08-07T08:54:33.240Z,100.00
2022-08-07T08:57:08.281Z,100.00
2022-08-07T08:59:50.230Z,100.00
2022-08-07T09:02:34.589Z,100.00
2022-08-07T09:05:17.367Z,100.00
2022-08-07T09:07:58.327Z,100.00
2022-08-07T09:10:33.801Z,100.00
2022-08-07T09:13:10.847Z,100.00
2022-08-07T09:16:23.408Z,100.00
2022-08-07T09:19:52.339Z,100.00
2022-08-07T09:24:29.296Z,100.00
2022-08-07T09:25:24.527Z,100.00
2022-08-07T09:28:02.029Z,100.00
2022-08-07T09:30:50.625Z,100.00
2022-08-07T09:33:52.801Z,100.00
2022-08-07T09:36:35.393Z,100.00
2022-08-07T09:39:27.459Z,100.00
2022-08-07T09:42:17.029Z,100.00
2022-08-07T09:47:25.811Z,100.00
2022-08-07T09:48:11.858Z,100.00
2022-08-07T09:50:55.281Z,100.00
2022-08-07T09:53:27.256Z,100.00
2022-08-07T09:56:41.963Z,100.00
2022-08-07T09:59:37.061Z,100.00
2022-08-07T10:02:31.528Z,100.00
2022-08-07T10:05:59.974Z,100.00
2022-08-07T10:08:49.528Z,100.00
2022-08-07T10:12:01.168Z,100.00
2022-08-07T10:14:47.452Z,100.00
2022-08-07T10:18:01.804Z,100.00
2022-08-07T10:20:44.450Z,100.00
2022-08-07T10:24:05.620Z,100.00
2022-08-07T10:26:53.521Z,98.39
2022-08-07T10:30:00.609Z,90.17
2022-08-07T10:32:53.713Z,77.16
2022-08-07T10:35:55.699Z,76.98
2022-08-07T10:38:36.181Z,75.03
2022-08-07T10:41:51.366Z,72.45
2022-08-07T10:44:19.539Z,73.77
2022-08-07T10:47:11.881Z,70.71
2022-08-07T10:49:51.237Z,69.63
2022-08-07T10:52:33.558Z,70.17
2022-08-07T10:55:26.581Z,68.70
2022-08-07T10:58:14.651Z,69.24
2022-08-07T11:00:56.238Z,67.33
2022-08-07T11:03:51.227Z,68.70
2022-08-07T11:06:29.962Z,71.47
2022-08-07T11:09:04.130Z,68.80
2022-08-07T11:11:51.878Z,67.89
2022-08-07T11:14:44.468Z,68.53
2022-08-07T11:17:23.134Z,67.29
2022-08-07T11:19:58.796Z,68.19
2022-08-07T11:22:37.172Z,67.75
2022-08-07T11:25:19.946Z,66.09
2022-08-07T11:28:01.197Z,65.43
2022-08-07T11:30:42.290Z,67.52
2022-08-07T11:33:59.828Z,68.04
2022-08-07T11:36:30.754Z,67.29
2022-08-07T11:39:09.348Z,66.23
2022-08-07T11:42:01.490Z,67.41
2022-08-07T11:44:52.449Z,65.97
2022-08-07T11:47:55.846Z,65.96
2022-08-07T11:50:36.829Z,63.91
2022-08-07T11:53:22.043Z,61.90
2022-08-07T11:56:25.688Z,60.07
2022-08-07T12:00:09.967Z,59.59
2022-08-07T12:02:03.759Z,61.39
2022-08-07T12:05:03.730Z,58.06
2022-08-07T12:07:45.353Z,55.05
2022-08-07T12:10:28.865Z,56.57
2022-08-07T12:13:04.064Z,59.31
2022-08-07T12:16:05.942Z,57.38
2022-08-07T12:18:38.102Z,56.31
2022-08-07T12:22:36.679Z,55.05
2022-08-07T12:24:37.920Z,56.70
2022-08-07T12:27:16.030Z,57.55
2022-08-07T12:29:52.788Z,56.29
2022-08-07T12:32:28.828Z,55.11
2022-08-07T12:35:01.121Z,57.35
2022-08-07T12:38:09.378Z,56.37
2022-08-07T12:40:47.492Z,55.68
2022-08-07T12:44:01.995Z,51.99
2022-08-07T12:46:32.710Z,52.23
2022-08-07T12:49:25.532Z,49.86
2022-08-07T12:52:12.035Z,51.93
2022-08-07T12:54:54.942Z,52.72
2022-08-07T12:57:39.314Z,53.79
2022-08-07T13:00:31.025Z,51.80
2022-08-07T13:03:26.829Z,46.55
2022-08-07T13:06:21.437Z,42.30
2022-08-07T13:10:10.018Z,39.61
2022-08-07T13:12:03.473Z,35.17
2022-08-07T13:14:52.612Z,33.50
2022-08-07T13:17:39.985Z,32.83
2022-08-07T13:20:16.713Z,30.58
2022-08-07T13:22:52.474Z,32.60
2022-08-07T13:25:30.044Z,36.85
2022-08-07T13:28:12.829Z,35.57
2022-08-07T13:31:01.747Z,33.88
2022-08-07T13:34:30.827Z,33.92
2022-08-07T13:36:39.687Z,32.80
2022-08-07T13:39:28.420Z,32.17
2022-08-07T13:42:03.928Z,31.87
2022-08-07T13:44:37.052Z,34.36
2022-08-07T13:47:09.793Z,33.89
2022-08-07T13:50:32.909Z,33.13
2022-08-07T13:52:40.976Z,34.63
2022-08-07T13:55:19.564Z,35.61
2022-08-07T13:58:28.154Z,35.25
2022-08-07T14:01:08.836Z,33.96
2022-08-07T14:04:05.482Z,30.95
2022-08-07T14:06:33.148Z,29.29
2022-08-07T14:09:04.497Z,29.03
2022-08-07T14:11:53.227Z,32.32
2022-08-07T14:14:39.800Z,31.37
2022-08-07T14:17:32.104Z,31.32
2022-08-07T14:20:42.248Z,29.86
2022-08-07T14:23:01.906Z,29.42
2022-08-07T14:25:39.513Z,30.16
2022-08-07T14:28:18.267Z,32.38
2022-08-07T14:30:51.896Z,34.53
2022-08-07T14:33:22.316Z,33.90
2022-08-07T14:35:56.701Z,32.21
2022-08-07T14:38:31.414Z,33.42
2022-08-07T14:41:04.836Z,34.91
2022-08-07T14:43:55.499Z,36.60
2022-08-07T14:46:31.516Z,38.39
2022-08-07T14:49:55.844Z,41.26
2022-08-07T14:52:03.661Z,42.62
2022-08-07T14:54:43.100Z,43.18
2022-08-07T15:02:57.160Z,42.13
2022-08-07T15:05:26.752Z,40.75
2022-08-07T15:07:58.486Z,40.69
2022-08-07T15:10:30.078Z,40.82
2022-08-07T15:13:05.958Z,41.06
2022-08-07T15:15:38.720Z,40.06
2022-08-07T15:18:14.485Z,41.41
2022-08-07T15:26:46.885Z,41.55
2022-08-07T15:32:11.577Z,39.58
2022-08-07T15:34:50.813Z,38.21
2022-08-07T15:38:17.300Z,32.69
2022-08-07T15:40:34.633Z,30.65
2022-08-07T15:46:32.155Z,29.11
2022-08-07T15:49:12.618Z,30.00
2022-08-07T15:54:34.105Z,29.95
2022-08-07T15:57:05.704Z,28.01
2022-08-07T15:59:38.887Z,28.23
2022-08-07T16:02:09.367Z,29.15
2022-08-07T16:04:44.482Z,28.24
2022-08-07T16:08:32.500Z,28.24
2022-08-07T16:10:14.814Z,27.39
2022-08-07T16:13:04.670Z,28.11
2022-08-07T16:15:57.538Z,29.00
2022-08-07T16:18:50.948Z,31.97
2022-08-07T16:22:03.498Z,34.88
2022-08-07T16:24:33.463Z,33.83
2022-08-07T16:27:18.372Z,32.33
2022-08-07T16:30:29.802Z,31.25
2022-08-07T16:33:00.609Z,30.83
2022-08-07T16:36:02.914Z,30.18
2022-08-07T16:41:41.544Z,30.09
2022-08-07T16:45:14.182Z,28.49
2022-08-07T16:47:56.812Z,30.71
2022-08-07T16:51:20.990Z,31.63
2022-08-07T16:54:06.880Z,31.40
2022-08-07T16:56:53.443Z,31.57
2022-08-07T16:59:47.018Z,30.95
2022-08-07T17:02:55.719Z,30.70
2022-08-07T17:06:20.008Z,30.98
2022-08-07T17:09:08.815Z,31.32
2022-08-07T17:12:04.728Z,32.76
2022-08-07T17:14:33.386Z,34.09
2022-08-07T17:17:05.771Z,33.55
2022-08-07T17:20:01.806Z,32.17
2022-08-07T17:22:38.128Z,32.19
2022-08-07T17:25:16.675Z,34.22
2022-08-07T17:28:00.451Z,35.16
2022-08-07T17:30:36.371Z,37.64
2022-08-07T17:34:09.180Z,40.97
2022-08-07T17:36:21.398Z,41.73
2022-08-07T17:39:02.623Z,44.70
2022-08-07T17:42:04.761Z,46.81
2022-08-07T17:44:49.916Z,47.88
2022-08-07T17:47:38.165Z,49.84
2022-08-07T17:50:18.997Z,50.21
2022-08-07T17:52:55.263Z,50.52
2022-08-07T17:55:56.561Z,51.38
2022-08-07T17:58:29.975Z,54.14
2022-08-07T18:01:20.839Z,53.15
2022-08-07T18:04:06.910Z,54.22
2022-08-07T18:06:43.033Z,55.05
2022-08-07T18:09:19.441Z,55.45
2022-08-07T18:12:28.237Z,56.68
2022-08-07T18:15:08.610Z,57.46
2022-08-07T18:18:47.599Z,59.24
2022-08-07T18:21:09.540Z,59.62
2022-08-07T18:23:43.733Z,60.94
2022-08-07T18:26:28.848Z,62.49
2022-08-07T18:30:07.510Z,63.22
2022-08-07T18:32:09.522Z,63.66
2022-08-07T18:35:00.636Z,64.38
2022-08-07T18:38:56.628Z,65.96
2022-08-07T18:40:57.849Z,66.08
2022-08-07T18:43:48.907Z,66.88
2022-08-07T18:46:27.792Z,68.51
2022-08-07T18:50:05.451Z,69.93
2022-08-07T18:52:35.401Z,69.76
2022-08-07T18:55:42.392Z,71.40
2022-08-07T18:58:29.901Z,75.53
2022-08-07T19:02:17.151Z,73.32
2022-08-07T19:04:09.882Z,75.65
2022-08-07T19:06:53.164Z,74.68
2022-08-07T19:09:57.678Z,79.21
2022-08-07T19:12:26.344Z,80.22
2022-08-07T19:16:03.406Z,83.12
2022-08-07T19:18:18.959Z,85.56
2022-08-07T19:21:13.938Z,87.50
2022-08-07T19:24:02.328Z,95.13
2022-08-07T19:27:09.329Z,94.44
2022-08-07T19:31:06.293Z,97.98
2022-08-07T19:32:26.478Z,100.00
2022-08-07T19:35:03.824Z,100.00
2022-08-07T19:37:56.517Z,100.00
2022-08-07T19:40:31.267Z,100.00
2022-08-07T19:43:08.504Z,100.00
2022-08-07T19:46:05.879Z,100.00
2022-08-07T19:48:42.999Z,100.00
2022-08-07T19:51:19.245Z,100.00
2022-08-07T19:54:34.049Z,100.00
2022-08-07T19:56:59.724Z,100.00
2022-08-07T19:59:41.103Z,100.00
2022-08-07T20:02:19.846Z,100.00
2022-08-07T20:04:52.079Z,100.00
2022-08-07T20:07:46.217Z,100.00
2022-08-07T20:10:38.074Z,100.00
2022-08-07T20:13:23.212Z,100.00
2022-08-07T20:15:57.769Z,100.00
2022-08-07T20:18:32.189Z,100.00
2022-08-07T20:21:03.178Z,100.00
2022-08-07T20:23:42.169Z,100.00
2022-08-07T20:26:12.960Z,100.00
2022-08-07T20:28:53.817Z,100.00
2022-08-07T20:31:24.901Z,100.00
2022-08-07T20:33:57.558Z,100.00
2022-08-07T20:36:28.380Z,100.00
2022-08-07T20:39:17.742Z,100.00
2022-08-07T20:41:51.629Z,100.00
2022-08-07T20:44:28.456Z,100.00
2022-08-07T20:47:05.748Z,100.00
2022-08-07T20:50:00.427Z,100.00
2022-08-07T20:52:51.931Z,100.00
2022-08-07T20:55:25.556Z,100.00
2022-08-07T20:58:02.878Z,100.00
2022-08-07T21:00:39.244Z,100.00
2022-08-07T21:03:13.046Z,100.00
2022-08-07T21:05:55.746Z,100.00
2022-08-07T21:08:36.941Z,100.00
2022-08-07T21:11:11.958Z,100.00
2022-08-07T21:14:16.804Z,100.00
2022-08-07T21:16:46.812Z,100.00
2022-08-07T21:19:32.455Z,100.00
2022-08-07T21:22:19.340Z,100.00
2022-08-07T21:25:12.740Z,100.00
2022-08-07T21:28:02.238Z,100.00
2022-08-07T21:30:41.816Z,100.00
2022-08-07T21:33:17.680Z,100.00
2022-08-07T21:36:04.384Z,100.00
2022-08-07T21:38:50.105Z,100.00
2022-08-07T21:41:25.655Z,100.00
2022-08-07T21:44:03.727Z,100.00
2022-08-07T21:46:41.909Z,100.00
2022-08-07T21:49:16.417Z,100.00
2022-08-07T21:51:58.599Z,100.00
2022-08-07T21:54:46.185Z,100.00
2022-08-07T21:57:44.609Z,100.00
2022-08-07T22:00:24.793Z,100.00
2022-08-07T22:03:05.604Z,100.00
2022-08-07T22:05:45.914Z,100.00
2022-08-07T22:08:21.052Z,100.00
2022-08-07T22:10:56.035Z,100.00
2022-08-07T22:13:50.288Z,100.00
2022-08-07T22:16:44.783Z,100.00
2022-08-07T22:19:18.178Z,100.00
2022-08-07T22:22:04.482Z,100.00
2022-08-07T22:24:46.976Z,100.00
2022-08-07T22:27:23.538Z,100.00
2022-08-07T22:30:15.656Z,100.00
2022-08-07T22:32:56.516Z,100.00
2022-08-07T22:35:39.383Z,100.00
2022-08-07T22:38:20.559Z,100.00
2022-08-07T22:40:57.841Z,100.00
2022-08-07T22:43:40.325Z,100.00
2022-08-07T22:47:03.881Z,100.00
2022-08-07T22:49:54.530Z,100.00
2022-08-07T22:53:15.223Z,100.00
2022-08-07T22:55:52.581Z,100.00
2022-08-07T22:58:38.180Z,100.00
2022-08-07T23:01:23.498Z,100.00
2022-08-07T23:04:05.015Z,100.00
2022-08-07T23:06:50.605Z,100.00
2022-08-07T23:10:04.207Z,100.00
2022-08-07T23:12:35.658Z,100.00
2022-08-07T23:16:04.344Z,100.00
2022-08-07T23:18:14.630Z,100.00
2022-08-07T23:21:01.951Z,100.00
2022-08-07T23:24:07.025Z,100.00
2022-08-07T23:26:57.158Z,100.00
2022-08-07T23:30:38.837Z,100.00
2022-08-07T23:34:35.691Z,100.00
2022-08-07T23:36:10.665Z,100.00
2022-08-07T23:38:57.471Z,100.00
2022-08-07T23:41:47.492Z,100.00
2022-08-07T23:44:55.857Z,100.00
2022-08-07T23:47:46.659Z,100.00
2022-08-07T23:50:30.385Z,100.00
2022-08-07T23:53:17.343Z,100.00
2022-08-07T23:55:55.640Z,100.00
2022-08-07T23:58:37.290Z,100.00
